Time;durP1;ratioP1;P1;durP2;ratioP2;P2;SDS_P1;SDS_P2;PMS_P1;PMS_P2;Temp;Humidity;BMP_temperature;BMP_pressure;BME280_temperature;BME280_humidity;BME280_pressure;Samples;Min_cycle;Max_cycle;Signal;HPM_P1;HPM_P2
2021/04/27 00:02:00;;;;;;;1.27;0.50;;;4.60;99.90;;;;;;5010197;28;20033;-78
2021/04/27 00:04:26;;;;;;;1.60;0.40;;;4.50;99.90;;;;;;5027744;28;20101;-78
2021/04/27 00:06:51;;;;;;;2.05;0.50;;;4.50;99.90;;;;;;5009522;28;20041;-77
2021/04/27 00:09:17;;;;;;;2.75;0.50;;;4.50;99.90;;;;;;5010032;28;20065;-77
2021/04/27 00:11:43;;;;;;;3.97;0.60;;;4.50;99.90;;;;;;5025744;28;20026;-77
2021/04/27 00:14:08;;;;;;;2.65;0.57;;;4.50;99.90;;;;;;5027554;28;20025;-77
2021/04/27 00:16:35;;;;;;;1.65;0.50;;;4.40;99.90;;;;;;5027222;28;20057;-77
2021/04/27 00:19:01;;;;;;;1.40;0.50;;;4.40;99.90;;;;;;5026147;28;20059;-77
2021/04/27 00:21:27;;;;;;;2.47;0.45;;;4.40;99.90;;;;;;5025736;28;20026;-77
2021/04/27 00:23:53;;;;;;;2.70;0.50;;;4.40;99.90;;;;;;5027260;28;20077;-78
2021/04/27 00:26:19;;;;;;;3.63;0.60;;;4.30;99.90;;;;;;5027164;28;20029;-77
2021/04/27 00:28:44;;;;;;;1.58;0.40;;;4.30;99.90;;;;;;5027059;28;20037;-77
2021/04/27 00:31:10;;;;;;;3.13;0.50;;;4.20;99.90;;;;;;5026955;28;20032;-78
2021/04/27 00:33:36;;;;;;;2.65;0.73;;;4.20;99.90;;;;;;5009529;28;20025;-77
2021/04/27 00:36:04;;;;;;;4.70;0.50;;;4.10;99.90;;;;;;5026764;28;20052;-77
2021/04/27 00:38:29;;;;;;;2.50;0.40;;;4.20;99.90;;;;;;5026966;28;20435;-77
2021/04/27 00:40:55;;;;;;;2.55;0.60;;;4.10;99.90;;;;;;5026745;28;20041;-77
2021/04/27 00:43:21;;;;;;;2.63;0.50;;;4.00;99.90;;;;;;5009303;28;20062;-78
2021/04/27 00:45:46;;;;;;;3.05;1.05;;;4.00;99.90;;;;;;5007254;28;20030;-77
2021/04/27 00:48:12;;;;;;;2.88;0.70;;;3.90;99.90;;;;;;5008837;28;20041;-77
2021/04/27 00:50:40;;;;;;;2.45;0.60;;;4.00;99.90;;;;;;5007342;28;20073;-77
2021/04/27 00:53:07;;;;;;;3.25;0.50;;;3.90;99.90;;;;;;5007192;28;20030;-77
2021/04/27 00:55:35;;;;;;;3.25;0.68;;;3.90;99.90;;;;;;5022176;28;20034;-77
2021/04/27 00:58:01;;;;;;;1.80;0.40;;;3.80;99.90;;;;;;5021847;28;20053;-78
2021/04/27 01:00:31;;;;;;;2.67;0.50;;;3.80;99.90;;;;;;5006919;28;20029;-77
2021/04/27 01:02:57;;;;;;;1.70;0.50;;;3.80;99.90;;;;;;5021996;28;20034;-77
2021/04/27 01:05:44;;;;;;;2.35;0.65;;;3.70;99.90;;;;;;5021807;28;20411;-77
2021/04/27 01:08:31;;;;;;;2.97;0.50;;;3.60;99.90;;;;;;4964664;28;20076;-77
2021/04/27 01:11:21;;;;;;;2.42;0.70;;;3.60;99.90;;;;;;4965631;29;20036;-77
2021/04/27 01:14:00;;;;;;;2.40;0.60;;;3.70;99.90;;;;;;4965470;29;20042;-78
2021/04/27 01:16:28;;;;;;;1.90;0.47;;;3.60;99.90;;;;;;4949613;29;20067;-77
2021/04/27 01:18:55;;;;;;;3.38;0.82;;;3.50;99.90;;;;;;4949282;29;20034;-77
2021/04/27 01:21:27;;;;;;;1.73;0.50;;;3.50;99.90;;;;;;4933436;29;20599;-77
2021/04/27 01:24:11;;;;;;;3.35;0.98;;;3.50;99.90;;;;;;4949446;29;20097;-77
2021/04/27 01:26:50;;;;;;;1.58;0.55;;;3.40;99.90;;;;;;4949167;29;20039;-77
2021/04/27 01:29:21;;;;;;;2.50;0.60;;;3.50;99.90;;;;;;4949224;29;20024;-77
2021/04/27 01:31:48;;;;;;;2.88;0.55;;;3.50;99.90;;;;;;4949002;29;20147;-77
2021/04/27 01:34:24;;;;;;;2.53;0.77;;;3.40;99.90;;;;;;4949252;29;20037;-77
2021/04/27 01:36:52;;;;;;;1.83;0.60;;;3.40;99.90;;;;;;4948984;29;20039;-77
2021/04/27 01:39:19;;;;;;;2.42;0.63;;;3.30;99.90;;;;;;4965151;29;20043;-77
2021/04/27 01:41:46;;;;;;;1.38;0.60;;;3.40;99.90;;;;;;4964904;29;20070;-78
2021/04/27 01:44:13;;;;;;;4.00;0.57;;;3.30;99.90;;;;;;4967607;28;20061;-77
2021/04/27 01:46:41;;;;;;;2.10;0.60;;;3.30;99.90;;;;;;5004917;28;20026;-76
2021/04/27 01:49:07;;;;;;;2.33;0.60;;;3.10;99.90;;;;;;4988708;28;20026;-77
2021/04/27 01:51:41;;;;;;;1.98;0.80;;;3.20;99.90;;;;;;5004692;28;20030;-77
2021/04/27 01:54:29;;;;;;;4.18;0.70;;;3.10;99.90;;;;;;4984575;28;20061;-77
2021/04/27 01:56:56;;;;;;;3.15;0.80;;;3.10;99.90;;;;;;5004752;28;20081;-77
2021/04/27 01:59:22;;;;;;;2.40;0.60;;;3.10;99.90;;;;;;5004643;28;20038;-77
2021/04/27 02:01:48;;;;;;;2.15;0.60;;;3.00;99.90;;;;;;5004650;28;20113;-77
2021/04/27 02:04:26;;;;;;;2.90;0.60;;;2.90;99.90;;;;;;5004715;28;20042;-77
2021/04/27 02:07:15;;;;;;;2.13;0.70;;;2.90;99.90;;;;;;5004390;28;20050;-77
2021/04/27 02:09:41;;;;;;;2.42;0.60;;;2.90;99.90;;;;;;5004878;28;20594;-77
2021/04/27 02:12:17;;;;;;;2.78;0.60;;;2.90;99.90;;;;;;4988482;28;20034;-77
2021/04/27 02:14:43;;;;;;;2.58;0.80;;;2.90;99.90;;;;;;5004736;28;20471;-77
2021/04/27 02:17:44;;;;;;;2.97;0.60;;;2.80;99.90;;;;;;5004643;28;20026;-77
2021/04/27 02:20:10;;;;;;;3.28;0.73;;;2.80;99.90;;;;;;4990773;28;20049;-77
2021/04/27 02:22:56;;;;;;;3.25;0.70;;;2.80;99.90;;;;;;4995203;28;20494;-77
2021/04/27 02:25:48;;;;;;;5.18;1.10;;;2.70;99.90;;;;;;5008634;28;20038;-76
2021/04/27 02:28:17;;;;;;;3.90;0.88;;;2.60;99.90;;;;;;5008547;28;20490;-77
2021/04/27 02:30:42;;;;;;;2.13;0.70;;;2.60;99.90;;;;;;5009789;28;20475;-77
2021/04/27 02:33:08;;;;;;;4.15;0.70;;;2.60;99.90;;;;;;5008526;28;20065;-77
2021/04/27 02:35:34;;;;;;;1.65;0.60;;;2.50;99.90;;;;;;5011741;28;20044;-77
2021/04/27 02:38:07;;;;;;;2.50;0.90;;;2.60;99.90;;;;;;4996306;28;20049;-77
2021/04/27 02:40:38;;;;;;;2.53;0.70;;;2.60;99.90;;;;;;4996030;28;20030;-77
2021/04/27 02:43:04;;;;;;;3.75;0.85;;;2.50;99.90;;;;;;4995236;28;20037;-77
2021/04/27 02:45:36;;;;;;;2.80;0.70;;;2.60;99.90;;;;;;5012424;28;20032;-77
2021/04/27 02:48:24;;;;;;;1.90;0.80;;;2.60;99.90;;;;;;5028223;28;20093;-76
2021/04/27 02:50:56;;;;;;;4.25;0.93;;;2.60;99.90;;;;;;5029065;28;20037;-77
2021/04/27 02:53:23;;;;;;;;;;;2.60;99.90;;;;;;5028215;28;20029;-77
2021/04/27 02:55:51;;;;;;;3.05;0.60;;;2.50;99.90;;;;;;5011371;28;19917;-77
2021/04/27 02:58:17;;;;;;;3.15;0.70;;;2.40;99.90;;;;;;5011290;28;20022;-77
2021/04/27 03:00:46;;;;;;;2.38;0.60;;;2.40;99.90;;;;;;5027426;28;20379;-77
2021/04/27 03:03:12;;;;;;;2.28;0.57;;;2.40;99.90;;;;;;5027527;28;20054;-77
2021/04/27 03:09:27;;;;;;;3.65;0.60;;;2.40;99.90;;;;;;4946620;29;20116;-77
2021/04/27 03:11:54;;;;;;;2.15;0.65;;;2.30;99.90;;;;;;4932632;29;20028;-77
2021/04/27 03:14:19;;;;;;;2.58;0.80;;;2.30;99.90;;;;;;4948403;29;20641;-77
2021/04/27 03:16:47;;;;;;;3.42;0.88;;;2.20;99.90;;;;;;4948245;29;20031;-77
2021/04/27 03:19:13;;;;;;;3.75;0.60;;;2.20;99.90;;;;;;4948345;29;20050;-77
2021/04/27 03:21:47;;;;;;;3.63;0.70;;;2.20;99.90;;;;;;4948256;29;20031;-77
2021/04/27 03:24:13;;;;;;;2.63;0.80;;;2.20;99.90;;;;;;4948206;29;20082;-77
2021/04/27 03:26:39;;;;;;;4.03;0.90;;;2.10;99.90;;;;;;4916550;29;20048;-78
2021/04/27 03:29:20;;;;;;;4.75;0.75;;;2.10;99.90;;;;;;4948193;29;20027;-77
2021/04/27 03:31:53;;;;;;;2.28;0.88;;;2.10;99.90;;;;;;4946848;29;20036;-77
2021/04/27 03:34:19;;;;;;;1.90;0.70;;;2.10;99.90;;;;;;4941404;29;20054;-77
2021/04/27 03:36:44;;;;;;;2.42;0.95;;;2.10;99.90;;;;;;4951130;29;20073;-77
2021/04/27 03:39:10;;;;;;;2.83;1.10;;;2.00;99.90;;;;;;4951156;29;20299;-77
2021/04/27 03:41:36;;;;;;;2.53;0.77;;;2.00;99.90;;;;;;4967048;29;20055;-76
2021/04/27 03:44:02;;;;;;;1.70;0.63;;;2.00;99.90;;;;;;4954959;29;20047;-77
2021/04/27 03:46:30;;;;;;;2.42;0.88;;;2.00;99.90;;;;;;4985580;28;20030;-77
2021/04/27 03:48:56;;;;;;;2.38;0.70;;;2.00;99.90;;;;;;4974761;28;20042;-77
2021/04/27 03:51:22;;;;;;;5.25;1.63;;;1.90;99.90;;;;;;4990595;28;20030;-77
2021/04/27 03:54:06;;;;;;;3.22;0.70;;;1.90;99.90;;;;;;4990713;28;20034;-77
2021/04/27 03:56:36;;;;;;;;;;;1.90;99.90;;;;;;4991801;28;20031;-77
2021/04/27 03:59:04;;;;;;;2.40;0.77;;;1.80;99.90;;;;;;5007006;28;19941;-77
2021/04/27 04:01:31;;;;;;;3.55;0.88;;;1.90;99.90;;;;;;4974997;28;20030;-77
2021/04/27 04:03:57;;;;;;;2.88;0.88;;;1.80;99.90;;;;;;4991234;28;20045;-78
2021/04/27 04:06:23;;;;;;;2.72;1.00;;;1.80;99.90;;;;;;4991705;28;20035;-78
2021/04/27 04:09:03;;;;;;;4.22;0.70;;;1.80;99.90;;;;;;4995872;28;20054;-78
2021/04/27 04:11:34;;;;;;;2.55;0.70;;;1.80;99.90;;;;;;5009697;28;20026;-79
2021/04/27 04:14:03;;;;;;;2.28;0.70;;;1.90;99.90;;;;;;5009726;28;20030;-78
2021/04/27 04:16:38;;;;;;;2.65;0.88;;;1.80;99.90;;;;;;5025986;28;20390;-78
2021/04/27 04:19:04;;;;;;;3.42;0.60;;;1.80;99.90;;;;;;5025722;28;20110;-78
2021/04/27 04:21:30;;;;;;;5.00;1.05;;;1.70;99.90;;;;;;5009334;28;20030;-78
2021/04/27 04:24:00;;;;;;;3.60;1.50;;;1.80;99.90;;;;;;5009110;28;20038;-78
2021/04/27 04:26:27;;;;;;;3.13;1.15;;;1.70;99.90;;;;;;5027023;28;20026;-79
2021/04/27 04:29:15;;;;;;;4.07;1.17;;;1.70;99.90;;;;;;5025605;28;20086;-78
2021/04/27 04:31:54;;;;;;;2.72;1.10;;;1.70;99.90;;;;;;5008613;28;20056;-78
2021/04/27 04:34:40;;;;;;;4.20;1.35;;;1.70;99.90;;;;;;5026239;28;20045;-78
2021/04/27 04:37:25;;;;;;;3.72;0.95;;;1.70;99.90;;;;;;5025772;28;20044;-78
2021/04/27 04:40:29;;;;;;;2.97;0.90;;;1.80;99.90;;;;;;5024939;28;20082;-78
2021/04/27 04:43:13;;;;;;;3.42;0.77;;;1.90;99.90;;;;;;5025949;28;20518;-78
2021/04/27 04:45:59;;;;;;;2.20;0.90;;;1.90;99.90;;;;;;4994970;28;20089;-78
2021/04/27 04:48:44;;;;;;;2.95;0.90;;;1.90;99.90;;;;;;5026196;28;20063;-78
2021/04/27 04:51:26;;;;;;;2.53;1.00;;;2.00;99.90;;;;;;5008535;28;20073;-78
2021/04/27 04:54:06;;;;;;;3.35;0.88;;;2.00;99.90;;;;;;5022832;28;20482;-78
2021/04/27 04:56:32;;;;;;;2.35;0.90;;;2.10;99.90;;;;;;5024658;28;20022;-78
2021/04/27 04:58:58;;;;;;;5.85;1.23;;;1.90;99.90;;;;;;5024627;28;20494;-78
2021/04/27 05:01:24;;;;;;;4.75;0.88;;;2.00;99.90;;;;;;5024383;28;20037;-78
2021/04/27 05:04:03;;;;;;;2.47;0.80;;;1.90;99.90;;;;;;5024442;28;20050;-78
2021/04/27 05:06:57;;;;;;;2.28;0.70;;;2.00;99.90;;;;;;4978013;28;20038;-78
2021/04/27 05:09:41;;;;;;;4.67;0.90;;;2.00;99.90;;;;;;4965124;29;20083;-78
2021/04/27 05:12:11;;;;;;;2.95;0.70;;;2.10;99.90;;;;;;4950762;29;20435;-78
2021/04/27 05:14:53;;;;;;;2.50;1.00;;;2.10;99.90;;;;;;4965103;29;20543;-78
2021/04/27 05:17:19;;;;;;;2.75;1.00;;;2.10;99.90;;;;;;4946835;29;20075;-78
2021/04/27 05:19:44;;;;;;;5.07;1.02;;;2.10;99.90;;;;;;4961352;29;20037;-78
2021/04/27 05:22:10;;;;;;;3.67;0.90;;;2.20;99.90;;;;;;4961657;29;20032;-78
2021/04/27 05:24:38;;;;;;;3.63;1.20;;;2.30;99.90;;;;;;4929780;29;20048;-78
2021/04/27 05:27:10;;;;;;;2.20;1.13;;;2.40;99.90;;;;;;4961703;29;20159;-78
2021/04/27 05:29:36;;;;;;;3.88;1.00;;;2.30;99.90;;;;;;4929689;29;20448;-78
2021/04/27 05:32:02;;;;;;;2.63;1.15;;;2.40;99.90;;;;;;4929464;29;20051;-78
2021/04/27 05:34:28;;;;;;;2.33;0.68;;;2.40;99.90;;;;;;4955991;29;20039;-78
2021/04/27 05:36:53;;;;;;;3.08;1.48;;;2.50;99.90;;;;;;4964549;29;20070;-78
2021/04/27 05:39:19;;;;;;;4.00;1.45;;;2.60;99.90;;;;;;4948525;29;20027;-79
2021/04/27 05:41:45;;;;;;;3.15;1.17;;;2.50;99.90;;;;;;4964472;29;20046;-78
2021/04/27 05:44:10;;;;;;;3.92;1.30;;;2.60;99.90;;;;;;4980516;28;20046;-78
2021/04/27 05:46:36;;;;;;;3.67;1.20;;;2.60;99.90;;;;;;4988153;28;20030;-78
2021/04/27 05:49:03;;;;;;;3.95;1.42;;;2.70;99.90;;;;;;5004293;28;20057;-78
2021/04/27 05:51:29;;;;;;;2.75;1.50;;;2.80;99.90;;;;;;5005556;28;20110;-78
2021/04/27 05:53:55;;;;;;;4.13;1.50;;;2.90;99.90;;;;;;4987647;28;20105;-78
2021/04/27 05:56:20;;;;;;;6.03;1.92;;;3.00;99.90;;;;;;4988127;28;20035;-78
2021/04/27 05:58:46;;;;;;;5.22;2.00;;;3.10;99.90;;;;;;5005574;28;20045;-78
2021/04/27 06:01:13;;;;;;;3.53;1.52;;;3.30;99.90;;;;;;5005254;28;20057;-78
2021/04/27 06:03:38;;;;;;;6.85;2.75;;;3.40;99.90;;;;;;4971843;28;20129;-78
2021/04/27 06:06:05;;;;;;;5.38;2.60;;;3.50;99.90;;;;;;4987428;28;20034;-78
2021/04/27 06:08:30;;;;;;;3.95;2.20;;;3.70;99.90;;;;;;4987828;28;20034;-78
2021/04/27 06:10:57;;;;;;;9.40;3.30;;;3.90;99.90;;;;;;4987643;28;20469;-78
2021/04/27 06:13:22;;;;;;;17.40;5.28;;;4.10;99.90;;;;;;4987952;28;20049;-78
2021/04/27 06:15:48;;;;;;;7.10;3.00;;;4.30;99.90;;;;;;4971748;28;20042;-78
2021/04/27 06:18:17;;;;;;;5.13;2.38;;;4.50;99.90;;;;;;5018494;23;20376;-78
2021/04/27 06:20:43;;;;;;;6.10;3.30;;;4.60;99.90;;;;;;5046090;28;20115;-79
2021/04/27 06:23:08;;;;;;;6.28;3.50;;;4.80;99.90;;;;;;5063411;28;20060;-79
2021/04/27 06:25:34;;;;;;;5.50;3.40;;;5.10;99.90;;;;;;5046718;28;20037;-78
2021/04/27 06:28:00;;;;;;;9.07;4.00;;;5.20;99.90;;;;;;5046839;28;20089;-78
2021/04/27 06:30:26;;;;;;;7.80;3.13;;;5.50;99.90;;;;;;5046435;28;20092;-78
2021/04/27 06:32:54;;;;;;;7.65;2.42;;;5.80;99.90;;;;;;5063413;28;20025;-78
2021/04/27 06:35:21;;;;;;;4.10;1.80;;;6.00;99.90;;;;;;5063063;28;20392;-78
2021/04/27 06:37:47;;;;;;;3.92;2.38;;;6.30;99.90;;;;;;5046586;28;20029;-79
2021/04/27 06:40:14;;;;;;;3.30;1.85;;;6.60;99.90;;;;;;5063239;28;20059;-79
2021/04/27 06:42:39;;;;;;;5.50;1.70;;;6.80;99.90;;;;;;5063035;28;20073;-78
2021/04/27 06:45:06;;;;;;;5.55;2.03;;;7.00;99.90;;;;;;5063212;28;20048;-78
2021/04/27 06:47:31;;;;;;;3.90;1.50;;;7.20;99.90;;;;;;5064491;28;20041;-79
2021/04/27 06:49:58;;;;;;;3.47;1.13;;;7.40;99.90;;;;;;5063007;28;20052;-79
2021/04/27 06:52:24;;;;;;;1.63;0.73;;;7.50;99.90;;;;;;5063278;28;20047;-79
2021/04/27 06:54:50;;;;;;;4.13;1.00;;;7.80;99.90;;;;;;5064536;28;20044;-79
2021/04/27 06:57:16;;;;;;;2.90;0.70;;;8.00;99.90;;;;;;5046458;28;20025;-79
2021/04/27 06:59:42;;;;;;;2.13;0.63;;;7.90;99.90;;;;;;5046287;28;20402;-79
2021/04/27 07:02:09;;;;;;;1.70;0.63;;;8.20;99.90;;;;;;5046239;28;20093;-79
2021/04/27 07:04:36;;;;;;;1.75;0.60;;;8.30;99.90;;;;;;5062942;28;20510;-78
2021/04/27 07:07:03;;;;;;;2.30;0.73;;;8.60;99.90;;;;;;5038990;28;20032;-79
2021/04/27 07:09:30;;;;;;;2.35;0.70;;;8.70;99.90;;;;;;5066825;28;20032;-80
2021/04/27 07:11:55;;;;;;;1.58;0.50;;;8.80;99.90;;;;;;5049820;28;20036;-79
2021/04/27 07:14:21;;;;;;;2.13;0.80;;;8.90;99.90;;;;;;5068109;28;20600;-79
2021/04/27 07:16:47;;;;;;;2.30;0.95;;;9.10;99.90;;;;;;5066421;28;20037;-79
2021/04/27 07:19:13;;;;;;;2.08;0.60;;;9.30;99.90;;;;;;5056319;28;20045;-79
2021/04/27 07:21:40;;;;;;;1.17;0.47;;;9.40;99.90;;;;;;5049496;28;20077;-79
2021/04/27 07:24:06;;;;;;;2.38;0.57;;;9.60;99.90;;;;;;5049674;28;20082;-80
2021/04/27 07:26:32;;;;;;;1.27;0.55;;;9.80;99.90;;;;;;5049558;28;20025;-79
2021/04/27 07:28:58;;;;;;;1.70;0.50;;;9.70;99.90;;;;;;5066359;28;20389;-79
2021/04/27 07:31:24;;;;;;;2.08;0.60;;;10.00;99.90;;;;;;5049363;28;20455;-80
2021/04/27 07:33:49;;;;;;;3.70;0.50;;;10.10;99.90;;;;;;5060633;28;20037;-79
2021/04/27 07:36:17;;;;;;;2.75;0.50;;;10.00;99.90;;;;;;5046049;28;20026;-79
2021/04/27 07:38:43;;;;;;;6.88;0.70;;;10.20;99.90;;;;;;5063298;28;20034;-79
2021/04/27 07:41:09;;;;;;;1.27;0.50;;;10.30;99.90;;;;;;5029249;28;20036;-79
2021/04/27 07:43:35;;;;;;;1.80;0.50;;;10.50;99.90;;;;;;5058223;28;20043;-79
2021/04/27 07:46:00;;;;;;;1.50;0.50;;;10.60;99.90;;;;;;5029511;28;20034;-79
2021/04/27 07:48:26;;;;;;;1.48;0.60;;;10.70;99.90;;;;;;5045986;28;20026;-78
2021/04/27 07:50:53;;;;;;;1.80;0.60;;;10.80;99.90;;;;;;5046111;28;20038;-79
2021/04/27 07:53:19;;;;;;;4.63;0.63;;;11.00;99.90;;;;;;5029220;28;20116;-78
2021/04/27 07:55:45;;;;;;;3.33;0.57;;;11.20;98.40;;;;;;5047115;28;20033;-79
2021/04/27 07:58:11;;;;;;;2.30;0.50;;;11.30;99.00;;;;;;5045721;28;20030;-79
2021/04/27 08:00:37;;;;;;;2.03;0.50;;;11.50;98.20;;;;;;5061640;28;20033;-79
2021/04/27 08:03:03;;;;;;;1.88;0.50;;;11.30;97.20;;;;;;5066944;28;20033;-79
2021/04/27 08:05:49;;;;;;;2.65;0.47;;;11.50;97.00;;;;;;5048772;28;20065;-79
2021/04/27 08:08:15;;;;;;;3.17;0.40;;;11.70;95.70;;;;;;5007683;28;20092;-81
2021/04/27 08:10:41;;;;;;;1.73;0.50;;;11.80;96.00;;;;;;4991495;28;20042;-79
2021/04/27 08:13:08;;;;;;;2.20;0.50;;;11.80;93.80;;;;;;5007993;28;20074;-79
2021/04/27 08:15:34;;;;;;;2.50;0.50;;;11.80;95.10;;;;;;4991828;28;20045;-79
2021/04/27 08:18:01;;;;;;;1.27;0.40;;;11.50;93.70;;;;;;5007399;28;20197;-79
2021/04/27 08:20:29;;;;;;;2.58;0.40;;;11.60;92.70;;;;;;5007694;28;20217;-78
2021/04/27 08:22:54;;;;;;;3.08;0.50;;;11.80;93.90;;;;;;4991445;28;20040;-79
2021/04/27 08:25:21;;;;;;;2.33;0.40;;;12.10;93.50;;;;;;5007771;28;20129;-80
2021/04/27 08:27:47;;;;;;;1.48;0.40;;;12.20;90.90;;;;;;4991662;28;20045;-79
2021/04/27 08:30:15;;;;;;;1.10;0.40;;;12.50;90.90;;;;;;5007778;28;20133;-79
2021/04/27 08:32:41;;;;;;;1.00;0.40;;;12.40;89.90;;;;;;4977125;28;20069;-80
2021/04/27 08:35:09;;;;;;;1.25;0.40;;;12.50;91.30;;;;;;4985068;28;20063;-79
2021/04/27 08:37:35;;;;;;;1.95;0.45;;;12.60;90.20;;;;;;4968561;28;20042;-79
2021/04/27 08:40:00;;;;;;;2.65;0.40;;;12.60;88.00;;;;;;4968315;28;20511;-79
2021/04/27 08:42:27;;;;;;;1.83;0.40;;;12.70;90.00;;;;;;4952550;28;20062;-78
2021/04/27 08:44:53;;;;;;;1.08;0.40;;;12.90;88.10;;;;;;5009388;28;20083;-79
2021/04/27 08:47:22;;;;;;;2.78;0.50;;;12.90;87.40;;;;;;5064703;28;20029;-79
2021/04/27 08:49:48;;;;;;;2.72;0.50;;;13.00;85.40;;;;;;5064540;28;20028;-79
2021/04/27 08:52:14;;;;;;;1.38;0.40;;;13.20;87.20;;;;;;5042575;28;20411;-79
2021/04/27 08:54:40;;;;;;;2.25;0.40;;;13.40;86.00;;;;;;5058239;28;20021;-79
2021/04/27 08:57:06;;;;;;;1.35;0.30;;;13.30;82.70;;;;;;5054673;28;20491;-79
2021/04/27 08:59:32;;;;;;;2.40;0.40;;;13.50;83.90;;;;;;5061148;28;20037;-79
2021/04/27 09:01:58;;;;;;;2.92;0.50;;;13.40;82.50;;;;;;5029666;28;20052;-79
2021/04/27 09:04:40;;;;;;;1.70;0.40;;;13.40;80.50;;;;;;5075961;28;20073;-80
2021/04/27 09:07:15;;;;;;;1.73;0.50;;;13.50;80.50;;;;;;5070384;28;20039;-80
2021/04/27 09:09:58;;;;;;;0.98;0.30;;;13.70;78.70;;;;;;5054347;28;20040;-80
2021/04/27 09:12:31;;;;;;;0.80;0.30;;;14.00;80.70;;;;;;5072557;28;20105;-79
2021/04/27 09:14:58;;;;;;;2.95;0.40;;;14.10;80.40;;;;;;5053564;28;20034;-80
2021/04/27 09:17:29;;;;;;;1.58;0.30;;;14.10;78.80;;;;;;5054864;28;20171;-79
2021/04/27 09:19:57;;;;;;;1.88;0.30;;;14.20;77.60;;;;;;5049481;28;20053;-79
2021/04/27 09:22:31;;;;;;;1.25;0.40;;;14.50;77.60;;;;;;5072576;28;20048;-79
2021/04/27 09:25:08;;;;;;;0.77;0.30;;;14.30;76.60;;;;;;5034854;28;20049;-79
2021/04/27 09:27:37;;;;;;;1.10;0.40;;;14.30;75.30;;;;;;5059379;28;20091;-80
2021/04/27 09:30:22;;;;;;;2.57;0.57;;;14.20;74.10;;;;;;5046868;28;20047;-79
2021/04/27 09:33:09;;;;;;;2.50;0.40;;;14.20;73.80;;;;;;5057344;28;20279;-80
2021/04/27 09:35:46;;;;;;;1.08;0.30;;;14.20;73.60;;;;;;5072944;28;20048;-79
2021/04/27 09:38:21;;;;;;;1.23;0.30;;;14.50;74.60;;;;;;5030070;28;20026;-79
2021/04/27 09:40:52;;;;;;;1.33;0.30;;;14.30;73.80;;;;;;5049900;28;20457;-79
2021/04/27 09:43:23;;;;;;;0.90;0.40;;;14.70;74.80;;;;;;5053817;28;20034;-79
2021/04/27 09:45:50;;;;;;;1.42;0.30;;;14.90;74.30;;;;;;5052812;28;20045;-79
2021/04/27 09:48:36;;;;;;;2.97;0.40;;;15.20;75.40;;;;;;5076217;28;20044;-80
2021/04/27 09:51:14;;;;;;;2.15;0.30;;;15.10;69.80;;;;;;5036765;28;20029;-79
2021/04/27 09:53:56;;;;;;;1.20;0.40;;;15.00;70.10;;;;;;5057696;28;20033;-80
2021/04/27 09:56:39;;;;;;;1.20;0.40;;;15.00;71.50;;;;;;5055938;28;20055;-79
2021/04/27 09:59:11;;;;;;;1.45;0.40;;;15.00;68.80;;;;;;5054513;28;20109;-80
2021/04/27 10:01:37;;;;;;;1.13;0.32;;;14.90;70.20;;;;;;5053908;28;20071;-79
2021/04/27 10:04:03;;;;;;;4.38;0.60;;;14.80;69.60;;;;;;5050727;28;20091;-81
2021/04/27 10:06:29;;;;;;;3.05;0.38;;;15.00;71.50;;;;;;5053598;28;20033;-80
2021/04/27 10:08:57;;;;;;;2.90;0.60;;;15.10;70.10;;;;;;5036460;28;20064;-80
2021/04/27 10:11:25;;;;;;;1.35;0.35;;;15.10;69.10;;;;;;5041848;28;20067;-80
2021/04/27 10:13:51;;;;;;;1.20;0.38;;;15.20;69.00;;;;;;5062071;28;20040;-79
2021/04/27 10:16:17;;;;;;;3.20;0.40;;;15.60;69.10;;;;;;5062965;28;20033;-79
2021/04/27 10:18:43;;;;;;;1.10;0.40;;;15.70;68.30;;;;;;5063136;28;20052;-79
2021/04/27 10:21:11;;;;;;;2.58;0.30;;;15.50;67.80;;;;;;5080002;28;20033;-79
2021/04/27 10:23:39;;;;;;;1.00;0.30;;;15.70;70.80;;;;;;5062540;28;20044;-79
2021/04/27 10:26:05;;;;;;;4.28;0.50;;;15.80;68.90;;;;;;5062143;28;20029;-79
2021/04/27 10:28:59;;;;;;;2.13;0.40;;;15.40;68.80;;;;;;5063079;28;20086;-79
2021/04/27 10:31:26;;;;;;;2.35;0.50;;;15.60;67.20;;;;;;5063040;28;20021;-79
2021/04/27 10:34:04;;;;;;;2.95;0.50;;;15.50;66.90;;;;;;5040775;28;20037;-79
2021/04/27 10:36:32;;;;;;;2.08;0.47;;;15.40;66.60;;;;;;5026258;28;20093;-80
2021/04/27 10:39:04;;;;;;;2.45;0.50;;;15.30;66.10;;;;;;5042789;28;20029;-78
2021/04/27 10:44:22;;;;;;;1.30;0.40;;;16.00;66.70;;;;;;4987095;28;20122;-79
2021/04/27 10:47:01;;;;;;;2.28;0.50;;;15.70;65.10;;;;;;4988238;28;20058;-78
2021/04/27 10:49:35;;;;;;;3.00;0.50;;;15.60;65.80;;;;;;4988330;28;20055;-79
2021/04/27 10:52:04;;;;;;;3.70;0.40;;;15.90;65.00;;;;;;4971988;28;20031;-79
2021/04/27 10:54:31;;;;;;;1.17;0.40;;;16.00;66.20;;;;;;4977758;28;20050;-80
2021/04/27 10:57:00;;;;;;;1.00;0.35;;;16.20;64.30;;;;;;4987063;28;20054;-79
2021/04/27 10:59:28;;;;;;;1.17;0.38;;;16.30;64.90;;;;;;4989327;28;20041;-80
2021/04/27 11:02:11;;;;;;;1.13;0.40;;;16.40;65.10;;;;;;4987992;28;20034;-80
2021/04/27 11:04:46;;;;;;;2.15;0.82;;;16.50;64.60;;;;;;4987908;28;20047;-81
2021/04/27 11:07:23;;;;;;;3.00;0.60;;;16.60;63.20;;;;;;4986652;28;20034;-80
2021/04/27 11:09:58;;;;;;;1.25;0.40;;;16.40;63.40;;;;;;4987322;28;20045;-80
2021/04/27 11:12:42;;;;;;;1.05;0.38;;;16.20;63.80;;;;;;4986750;28;20053;-80
2021/04/27 11:15:29;;;;;;;2.70;0.40;;;16.20;63.40;;;;;;4987584;28;20035;-79
2021/04/27 11:18:17;;;;;;;1.48;0.35;;;16.30;61.60;;;;;;4987122;28;20093;-78
2021/04/27 11:20:47;;;;;;;2.08;0.35;;;16.90;61.80;;;;;;4971158;28;20048;-78
2021/04/27 11:23:35;;;;;;;2.15;0.50;;;16.80;63.70;;;;;;4989062;28;20042;-79
2021/04/27 11:26:02;;;;;;;2.10;0.40;;;16.80;62.50;;;;;;4983642;28;20039;-78
2021/04/27 11:28:51;;;;;;;1.77;0.40;;;17.00;62.30;;;;;;4983674;28;20035;-79
2021/04/27 11:31:17;;;;;;;1.60;0.50;;;16.60;60.70;;;;;;4969091;29;20023;-79
2021/04/27 11:33:43;;;;;;;1.05;0.40;;;16.40;60.40;;;;;;4985353;28;20061;-80
2021/04/27 11:36:09;;;;;;;1.67;0.47;;;16.70;61.50;;;;;;4967750;28;20110;-79
2021/04/27 11:38:34;;;;;;;1.88;0.40;;;16.90;60.40;;;;;;4967709;29;20112;-79
2021/04/27 11:41:00;;;;;;;1.40;0.50;;;16.80;61.80;;;;;;4966826;28;20160;-79
2021/04/27 11:43:26;;;;;;;1.27;0.35;;;17.00;59.30;;;;;;4986372;28;20051;-79
2021/04/27 11:45:52;;;;;;;2.65;0.50;;;17.10;62.50;;;;;;5003242;28;20406;-79
2021/04/27 11:48:22;;;;;;;2.03;0.40;;;17.00;59.00;;;;;;4987113;28;20038;-80
2021/04/27 11:50:49;;;;;;;1.17;0.40;;;17.10;58.90;;;;;;4986601;28;20408;-79
2021/04/27 11:53:17;;;;;;;0.90;0.30;;;16.80;60.60;;;;;;4985521;28;20038;-80
2021/04/27 11:55:47;;;;;;;1.45;0.40;;;16.90;58.80;;;;;;4970638;28;20094;-80
2021/04/27 11:58:18;;;;;;;;;;;16.70;57.40;;;;;;4987125;28;20023;-79
2021/04/27 12:01:03;;;;;;;2.28;0.40;;;17.00;57.90;;;;;;5003162;28;20001;-79
2021/04/27 12:03:32;;;;;;;1.15;0.40;;;16.70;58.30;;;;;;4987732;28;20125;-79
2021/04/27 12:06:07;;;;;;;1.73;0.40;;;16.30;57.80;;;;;;4985046;28;20542;-79
2021/04/27 12:08:35;;;;;;;3.45;0.40;;;16.30;58.80;;;;;;4981963;28;20053;-79
2021/04/27 12:11:10;;;;;;;2.55;0.40;;;16.50;57.60;;;;;;4968966;28;20122;-79
2021/04/27 12:13:40;;;;;;;2.03;0.52;;;16.30;58.40;;;;;;5002805;28;20086;-79
2021/04/27 12:16:35;;;;;;;2.88;0.40;;;16.40;58.10;;;;;;4989278;28;20027;-79
2021/04/27 12:19:06;;;;;;;1.00;0.30;;;16.70;58.70;;;;;;4984920;28;20039;-78
2021/04/27 12:21:38;;;;;;;1.30;0.40;;;16.80;57.20;;;;;;4987672;28;20295;-78
2021/04/27 12:24:16;;;;;;;1.73;0.40;;;16.80;58.20;;;;;;4987825;28;20046;-79
2021/04/27 12:26:51;;;;;;;0.88;0.35;;;16.90;57.30;;;;;;5002809;28;20049;-79
2021/04/27 12:29:34;;;;;;;1.30;0.50;;;17.10;58.70;;;;;;4970004;28;20116;-79
2021/04/27 12:32:19;;;;;;;1.20;0.30;;;17.30;57.90;;;;;;4987443;28;20035;-79
2021/04/27 12:35:07;;;;;;;2.85;0.40;;;17.30;58.10;;;;;;4987499;28;20049;-79
2021/04/27 12:37:38;;;;;;;2.20;0.40;;;17.40;57.70;;;;;;4987164;28;20041;-80
2021/04/27 12:40:17;;;;;;;1.27;0.40;;;17.90;58.10;;;;;;4986141;28;20292;-79
2021/04/27 12:42:44;;;;;;;1.15;0.40;;;17.50;58.00;;;;;;4985689;28;20047;-79
2021/04/27 12:45:10;;;;;;;1.27;0.40;;;17.40;57.90;;;;;;4985800;28;20715;-79
2021/04/27 12:47:37;;;;;;;1.48;0.40;;;17.30;57.50;;;;;;4986943;28;20034;-78
2021/04/27 12:50:13;;;;;;;1.00;0.40;;;17.70;56.60;;;;;;4987017;28;20589;-79
2021/04/27 12:52:49;;;;;;;2.00;0.40;;;17.40;57.70;;;;;;4986959;28;20074;-78
2021/04/27 12:55:35;;;;;;;1.00;0.30;;;17.30;56.10;;;;;;4985808;28;20468;-80
2021/04/27 12:58:13;;;;;;;1.77;0.38;;;17.40;56.80;;;;;;4985687;28;20038;-79
2021/04/27 13:00:49;;;;;;;2.20;0.38;;;17.20;53.90;;;;;;4985477;28;20026;-79
2021/04/27 13:03:21;;;;;;;1.02;0.40;;;17.40;56.40;;;;;;4985402;28;20035;-78
2021/04/27 13:05:47;;;;;;;1.30;0.40;;;17.70;55.70;;;;;;5001582;28;20045;-78
2021/04/27 13:08:15;;;;;;;0.70;0.30;;;17.40;53.80;;;;;;5044123;23;20049;-79
2021/04/27 13:10:44;;;;;;;1.35;0.47;;;17.30;54.70;;;;;;5011984;28;20489;-78
2021/04/27 13:13:21;;;;;;;1.48;0.30;;;17.00;54.80;;;;;;5046031;28;20395;-78
2021/04/27 13:15:56;;;;;;;1.20;0.20;;;17.20;55.80;;;;;;5045943;28;20060;-78
2021/04/27 13:18:23;;;;;;;0.88;0.30;;;17.10;55.30;;;;;;5028195;28;20055;-78